Airfield :
LOGIN :

Register | Disclaimer

   EN    FR    IT 

 










Legend :    VFR   Marginal VFR   IFR   Intensive IFR   Very Intensive IFR
Visi :
Ceiling :
>= 8 km
>= 3000ft
5 to 8 km
1000 to 3000 ft
1500m to 5 km
500 to 1000 ft
800 to 1500m
200 to 500 ft
< 800m
< 200 ft
Symbols :   Thunderstorms  Fog  Heavy snow  Heavy precipitations  Wind > 20 kt
SIGMETs :     Misc.  Thunderstorms  Icing  Turbulence  Mountain Waves  Volcanic Ashes







- Airport Elevation : 57 ft
- IATA code : KRS


ENCN - Kristiansand Kjevik

CURRENT METAR :
  • 202120Z 21006KT 9999 SCT021 BKN049 05/05 Q1024

EXPIRED METARs :
  • 202050Z 19007KT 9999 BKN049 06/05 Q1024
  • 202020Z 19007KT 9999 SCT036 BKN053 07/04 Q1024
  • 201950Z 22007KT 9999 SCT036 BKN055 07/04 Q1024
  • 201920Z 24007KT 9999 SCT036 BKN053 08/03 Q1025
  • 201850Z 22007KT 9999 SCT040 BKN055 08/03 Q1024

TAF TAF ENCN
Valid from the 20 at 18:00 until the 20 at 22:00 UTC


201700Z 2018/2022 25008KT 9999 SCT030
BECMG 2020/2022 BKN008
No reported NOTAMs for that airfield.
3 SIGMETs reported for the Norway FIR (ENOR) :
 
Severe turbulence
ENSV SIGMET B01 VALID 201950/202350 ENVV
ENOR NORWAY FIR SEV TURB FCST WI N6300 E00000 - N6300 E00400 - N6200 E00500 - N6200 E00000 - N6300 E00000 FL340/390 STNR NC=
Severe turbulence
ENBD SIGMET D01 VALID 202000/210000 ENVN
ENOR NORWAY FIR SEV TURB FCST WI N6500 E00605 - N6600 E00720 - N6600 E01430 - N6500 E01415 - N6500 E00605 FL340/390 STNR NC=
Severe turbulence
ENBD SIGMET C01 VALID 201945/202345 ENVV
ENOR NORWAY FIR SEV TURB FCST WI N6200 E00500 - N6300 E00400 - N6500 E00605 - N6500 E01415 - N6200 E01215 - N6200 E00500 FL340/390 STNR NC=



MET'MAP, your aeronautical weather chart ! - Copyright ORBIFLY December 2007 - Disclaimer

ORBIFLY MET'MAP TEAM :

Programming & Development : Alexandra Zaïnal
Concept & Development : Baudouin d'Aumeries
Co-Development & Prog : Marc-Olivier Méhu
Technical & hardware support : Manuel Goepfert

Contact : metmap@orbifly.com




SOURCES & CREDITS :

   NOAA